GCGM/GMZ METAR and TAF weather

Enter ICAO airport designator
Station Type Date Time Source
GCGM METAR 2019/02/20 07:00 UTC NOAA

GCGM 200700Z 05004KT 350V090 9999 SCT038 14/07 Q1019 RMK R09/05003KT ARP/07003KT 020V110


Station Type Date Time Source
GCGM Decoded METAR 2019/02/20 07:00 UTC NOAA

Station name not available
Feb 20, 2019 - 02:00 AM EST / 2019.02.20 0700 UTC
Wind: from the NE (050 degrees) at 5 MPH (4 KT) (direction variable):0
Visibility: greater than 7 mile(s):0
Sky conditions: partly cloudy
Temperature: 57 F (14 C)
Dew Point: 44 F (7 C)
Relative Humidity: 62%
Pressure (altimeter): 30.09 in. Hg (1019 hPa)
ob: GCGM 200700Z 05004KT 350V090 9999 SCT038 14/07 Q1019 RMK R09/05003KT ARP/07003KT 020V110
cycle: 7

Station Type Date Time Source
GCGM TAF 2019/02/20 03:00 UTC NOAA

TAF GCGM 200200Z 2003/2103 35008KT 9999 SCT035 TX21/2014Z TN14/2006Z


Example: see airport list